createdAt,value
2019-04-21T00:00:15.094Z,11.93
2019-04-21T00:01:12.628Z,11.93
2019-04-21T00:02:14.760Z,12.01
2019-04-21T00:03:18.165Z,12.05
2019-04-21T00:04:24.901Z,11.90
2019-04-21T00:05:43.162Z,11.87
2019-04-21T00:06:32.389Z,11.82
2019-04-21T00:07:31.858Z,11.83
2019-04-21T00:09:32.657Z,11.78
2019-04-21T00:10:35.777Z,11.86
2019-04-21T00:11:36.579Z,11.74
2019-04-21T00:12:28.671Z,11.80
2019-04-21T00:13:27.936Z,11.78
2019-04-21T00:14:22.682Z,11.59
2019-04-21T00:15:21.715Z,11.62
2019-04-21T00:16:14.051Z,11.54
2019-04-21T00:17:16.350Z,11.50
2019-04-21T00:18:12.758Z,11.56
2019-04-21T00:19:16.278Z,11.56
2019-04-21T00:20:22.463Z,11.71
2019-04-21T00:21:25.555Z,11.72
2019-04-21T00:22:25.537Z,11.86
2019-04-21T00:23:30.067Z,12.02
2019-04-21T00:24:24.907Z,12.02
2019-04-21T00:25:25.189Z,12.19
2019-04-21T00:26:31.866Z,12.08
2019-04-21T00:27:30.866Z,12.01
2019-04-21T00:28:39.026Z,11.97
2019-04-21T00:29:34.042Z,11.78
2019-04-21T00:30:35.053Z,11.67
2019-04-21T00:31:28.607Z,11.68
2019-04-21T00:32:25.405Z,11.78
2019-04-21T00:33:19.194Z,11.68
2019-04-21T00:34:11.248Z,11.57
2019-04-21T00:35:14.033Z,11.65
2019-04-21T00:36:16.720Z,11.62
2019-04-21T00:37:20.671Z,11.53
2019-04-21T00:38:32.446Z,11.50
2019-04-21T00:40:34.562Z,11.36
2019-04-21T00:41:29.444Z,11.41
2019-04-21T00:42:30.243Z,11.35
2019-04-21T00:43:27.963Z,11.43
2019-04-21T00:44:22.058Z,11.39
2019-04-21T00:45:26.321Z,11.35
2019-04-21T00:46:27.937Z,11.38
2019-04-21T00:47:48.060Z,11.46
2019-04-21T00:48:36.527Z,11.49
2019-04-21T00:49:23.332Z,11.41
2019-04-21T00:50:34.467Z,11.46
2019-04-21T00:51:42.073Z,11.38
2019-04-21T00:52:49.182Z,11.43
2019-04-21T00:53:38.450Z,11.39
2019-04-21T00:54:35.838Z,11.41
2019-04-21T00:56:34.122Z,11.31
2019-04-21T00:57:43.137Z,11.50
2019-04-21T00:58:37.129Z,11.47
2019-04-21T00:59:34.990Z,11.38
2019-04-21T01:00:36.712Z,11.27
2019-04-21T01:01:31.368Z,11.29
2019-04-21T01:02:40.138Z,11.10
2019-04-21T01:03:32.329Z,11.03
2019-04-21T01:04:37.046Z,10.96
2019-04-21T01:05:36.560Z,10.84
2019-04-21T01:06:36.875Z,10.91
2019-04-21T01:07:32.023Z,10.94
2019-04-21T01:08:31.340Z,11.02
2019-04-21T01:09:28.503Z,11.01
2019-04-21T01:10:24.760Z,10.99
2019-04-21T01:11:32.026Z,10.99
2019-04-21T01:12:36.305Z,10.98
2019-04-21T01:13:37.654Z,11.02
2019-04-21T01:14:35.919Z,10.96
2019-04-21T01:15:41.388Z,11.02
2019-04-21T01:16:37.477Z,10.95
2019-04-21T01:17:27.787Z,11.01
2019-04-21T01:18:32.930Z,11.06
2019-04-21T01:19:29.826Z,11.06
2019-04-21T01:20:17.190Z,11.02
2019-04-21T01:21:14.389Z,11.06
2019-04-21T01:22:09.528Z,10.96
2019-04-21T01:23:10.554Z,11.01
2019-04-21T01:24:16.929Z,10.96
2019-04-21T01:25:20.345Z,10.91
2019-04-21T01:26:22.631Z,10.78
2019-04-21T01:27:18.621Z,10.76
2019-04-21T01:28:29.021Z,10.77
2019-04-21T01:29:28.004Z,10.62
2019-04-21T01:30:29.810Z,10.62
2019-04-21T01:31:22.971Z,10.65
2019-04-21T01:32:29.712Z,10.55
2019-04-21T01:33:36.334Z,10.46
2019-04-21T01:34:37.702Z,10.52
2019-04-21T01:35:32.969Z,10.47
2019-04-21T01:36:24.484Z,10.63
2019-04-21T01:37:34.425Z,10.73
2019-04-21T01:38:34.395Z,10.76
2019-04-21T01:39:34.866Z,10.74
2019-04-21T01:40:43.345Z,10.86
2019-04-21T01:41:35.212Z,10.95
2019-04-21T01:42:31.618Z,10.83
2019-04-21T01:43:27.667Z,10.88
2019-04-21T01:44:37.639Z,10.94
2019-04-21T01:45:26.644Z,10.92
2019-04-21T01:46:27.248Z,10.89
2019-04-21T01:47:25.177Z,10.98
2019-04-21T01:48:28.999Z,10.96
2019-04-21T01:49:19.180Z,10.84
2019-04-21T01:50:30.032Z,10.89
2019-04-21T01:51:26.020Z,10.83
2019-04-21T01:52:38.363Z,10.73
2019-04-21T01:53:30.882Z,10.73
2019-04-21T01:54:35.273Z,10.74
2019-04-21T01:55:33.221Z,10.68
2019-04-21T01:56:30.564Z,10.73
2019-04-21T01:57:27.346Z,10.66
2019-04-21T01:58:24.524Z,10.66
2019-04-21T01:59:18.498Z,10.53
2019-04-21T02:00:23.415Z,10.51
2019-04-21T02:01:37.212Z,10.55
2019-04-21T02:02:32.617Z,10.43
2019-04-21T02:03:48.690Z,10.26
2019-04-21T02:04:36.442Z,10.60
2019-04-21T02:05:39.357Z,10.71
2019-04-21T02:06:45.605Z,10.62
2019-04-21T02:07:34.496Z,10.78
2019-04-21T02:08:21.535Z,10.84
2019-04-21T02:09:29.324Z,11.01
2019-04-21T02:10:37.255Z,11.19
2019-04-21T02:11:30.016Z,11.24
2019-04-21T02:12:31.836Z,11.29
2019-04-21T02:13:27.734Z,11.24
2019-04-21T02:14:39.067Z,11.11
2019-04-21T02:15:36.500Z,11.01
2019-04-21T02:16:28.144Z,10.91
2019-04-21T02:17:29.183Z,10.77
2019-04-21T02:18:27.667Z,10.62
2019-04-21T02:19:23.607Z,10.53
2019-04-21T02:20:21.586Z,10.52
2019-04-21T02:21:21.791Z,10.39
2019-04-21T02:22:35.318Z,10.26
2019-04-21T02:23:38.408Z,10.25
2019-04-21T02:24:47.962Z,10.22
2019-04-21T02:25:32.312Z,10.43
2019-04-21T02:26:36.989Z,10.46
2019-04-21T02:27:34.321Z,10.51
2019-04-21T02:28:36.834Z,10.55
2019-04-21T02:29:33.082Z,10.74
2019-04-21T02:30:51.532Z,10.78
2019-04-21T02:32:48.291Z,10.76
2019-04-21T02:33:50.705Z,10.81
2019-04-21T02:34:57.507Z,10.86
2019-04-21T02:36:02.753Z,11.06
2019-04-21T02:36:58.602Z,10.99
2019-04-21T02:37:47.260Z,11.02
2019-04-21T02:38:53.029Z,10.98
2019-04-21T02:39:49.018Z,10.89
2019-04-21T02:41:47.407Z,11.10
2019-04-21T02:42:47.947Z,11.11
2019-04-21T02:43:48.228Z,11.07
2019-04-21T02:44:49.653Z,11.07
2019-04-21T02:45:38.840Z,11.21
2019-04-21T02:46:42.118Z,11.43
2019-04-21T02:47:45.839Z,11.46
2019-04-21T02:48:46.471Z,11.52
2019-04-21T02:49:56.975Z,11.61
2019-04-21T02:50:38.121Z,11.61
2019-04-21T02:52:53.901Z,11.70
2019-04-21T02:55:41.181Z,11.70
2019-04-21T02:56:48.669Z,11.67
2019-04-21T02:57:43.501Z,11.65
2019-04-21T02:58:45.583Z,11.72
2019-04-21T02:59:42.399Z,11.74
2019-04-21T03:01:56.216Z,11.72
2019-04-21T03:03:45.291Z,11.67
2019-04-21T03:04:43.106Z,11.74
2019-04-21T03:06:43.783Z,11.68
2019-04-21T03:07:41.360Z,11.68
2019-04-21T03:08:50.491Z,11.71
2019-04-21T03:10:48.666Z,11.75
2019-04-21T03:11:35.098Z,11.80
2019-04-21T03:12:39.232Z,11.75
2019-04-21T03:13:50.775Z,11.85
2019-04-21T03:14:46.156Z,11.89
2019-04-21T03:15:48.282Z,11.96
2019-04-21T03:16:34.167Z,12.02
2019-04-21T03:17:44.073Z,11.83
2019-04-21T03:20:48.628Z,11.85
2019-04-21T03:21:43.486Z,12.01
2019-04-21T03:23:52.084Z,12.02
2019-04-21T03:25:01.241Z,11.97
2019-04-21T03:27:50.790Z,11.87
2019-04-21T03:28:54.502Z,11.86
2019-04-21T03:32:05.791Z,11.87
2019-04-21T03:37:40.188Z,11.87
2019-04-21T03:39:44.888Z,11.83
2019-04-21T03:40:32.938Z,11.85
2019-04-21T03:42:42.523Z,11.85
2019-04-21T03:44:40.044Z,11.87
2019-04-21T03:45:49.765Z,11.89
2019-04-21T03:46:41.869Z,11.96
2019-04-21T03:47:39.666Z,11.78
2019-04-21T03:48:42.790Z,11.72
2019-04-21T03:51:50.559Z,11.68
2019-04-21T03:53:38.343Z,11.80
2019-04-21T03:54:41.503Z,11.74
2019-04-21T03:57:57.373Z,11.74
2019-04-21T03:59:36.707Z,11.62
2019-04-21T04:00:49.849Z,11.62
2019-04-21T04:01:40.650Z,11.64
2019-04-21T04:02:49.433Z,11.59
2019-04-21T04:04:49.714Z,11.50
2019-04-21T04:06:02.069Z,11.50
2019-04-21T04:07:55.688Z,11.50
2019-04-21T04:10:42.707Z,11.34
2019-04-21T04:11:50.480Z,11.35
2019-04-21T04:14:44.494Z,11.20
2019-04-21T04:16:50.136Z,11.28
2019-04-21T04:17:40.990Z,11.25
2019-04-21T04:18:46.139Z,11.35
2019-04-21T04:19:39.410Z,11.41
2019-04-21T04:20:51.187Z,11.34
2019-04-21T04:22:52.205Z,11.28
2019-04-21T04:23:45.374Z,11.35
2019-04-21T04:24:40.868Z,11.41
2019-04-21T04:25:35.838Z,11.35
2019-04-21T04:26:41.048Z,11.29
2019-04-21T04:27:53.736Z,11.39
2019-04-21T04:28:46.110Z,11.24
2019-04-21T04:30:42.015Z,11.35
2019-04-21T04:32:46.298Z,11.28
2019-04-21T04:34:51.712Z,11.10
2019-04-21T04:35:52.911Z,11.24
2019-04-21T04:36:58.959Z,11.24
2019-04-21T04:38:50.139Z,11.11
2019-04-21T04:40:44.861Z,11.07
2019-04-21T04:41:42.117Z,11.02
2019-04-21T04:43:37.076Z,11.28
2019-04-21T04:45:38.690Z,11.29
2019-04-21T04:46:49.495Z,11.35
2019-04-21T04:50:55.554Z,11.39
2019-04-21T04:52:04.840Z,11.39
2019-04-21T04:52:37.835Z,11.38
2019-04-21T04:53:47.485Z,11.43
2019-04-21T04:54:47.619Z,11.49
2019-04-21T04:55:43.148Z,11.52
2019-04-21T04:56:40.521Z,11.59
2019-04-21T04:57:47.114Z,11.74
2019-04-21T04:59:17.119Z,11.77
2019-04-21T04:59:43.214Z,11.78
2019-04-21T05:01:40.662Z,11.68
2019-04-21T05:02:46.381Z,11.71
2019-04-21T05:04:45.762Z,11.85
2019-04-21T05:05:35.718Z,12.41
2019-04-21T05:07:42.797Z,13.09
2019-04-21T05:08:54.367Z,13.38
2019-04-21T05:09:41.409Z,13.38
2019-04-21T05:10:47.648Z,13.56
2019-04-21T05:11:46.798Z,13.47
2019-04-21T05:13:43.427Z,13.88
2019-04-21T05:14:38.997Z,13.88
2019-04-21T05:15:34.175Z,14.47
2019-04-21T05:18:47.077Z,14.43
2019-04-21T05:19:49.359Z,14.43
2019-04-21T05:20:35.560Z,14.54
2019-04-21T05:22:48.953Z,14.61
2019-04-21T05:23:31.254Z,14.65
2019-04-21T05:24:30.319Z,14.61
2019-04-21T05:25:23.072Z,14.61
2019-04-21T05:26:22.034Z,14.67
2019-04-21T05:27:20.347Z,14.74
2019-04-21T05:28:21.903Z,14.65
2019-04-21T05:29:19.444Z,14.81
2019-04-21T05:30:34.024Z,14.95
2019-04-21T05:31:31.723Z,15.05
2019-04-21T05:32:36.648Z,15.30
2019-04-21T05:33:34.454Z,15.11
2019-04-21T05:34:31.927Z,15.08
2019-04-21T05:35:26.374Z,15.08
2019-04-21T05:36:30.971Z,14.99
2019-04-21T05:37:33.281Z,15.17
2019-04-21T05:38:27.386Z,15.23
2019-04-21T05:39:23.563Z,15.61
2019-04-21T05:40:24.848Z,15.61
2019-04-21T05:41:24.543Z,15.78
2019-04-21T05:42:23.865Z,15.86
2019-04-21T05:43:28.078Z,16.04
2019-04-21T05:44:41.317Z,15.93
2019-04-21T05:46:31.467Z,15.82
2019-04-21T05:47:35.485Z,15.60
2019-04-21T05:49:27.993Z,15.86
2019-04-21T05:50:27.510Z,15.94
2019-04-21T05:51:23.797Z,15.67
2019-04-21T05:52:23.140Z,15.74
2019-04-21T05:53:50.537Z,15.84
2019-04-21T05:54:39.431Z,15.97
2019-04-21T05:56:32.099Z,16.41
2019-04-21T05:57:28.831Z,16.07
2019-04-21T05:58:27.235Z,16.33
2019-04-21T05:59:26.264Z,16.56
2019-04-21T06:00:48.072Z,16.52
2019-04-21T06:01:33.430Z,16.49
2019-04-21T06:03:39.719Z,16.37
2019-04-21T06:04:51.802Z,16.63
2019-04-21T06:05:36.747Z,16.11
2019-04-21T06:06:33.702Z,16.07
2019-04-21T06:07:28.496Z,16.26
2019-04-21T06:08:34.275Z,16.63
2019-04-21T06:09:32.277Z,16.06
2019-04-21T06:10:40.459Z,16.06
2019-04-21T06:11:30.353Z,16.25
2019-04-21T06:12:31.651Z,16.03
2019-04-21T06:13:38.469Z,16.95
2019-04-21T06:14:29.432Z,17.15
2019-04-21T06:15:34.088Z,17.10
2019-04-21T06:16:36.482Z,16.89
2019-04-21T06:18:34.609Z,17.35
2019-04-21T06:19:36.587Z,17.63
2019-04-21T06:20:27.634Z,17.38
2019-04-21T06:21:28.094Z,17.06
2019-04-21T06:22:23.909Z,16.73
2019-04-21T06:23:32.810Z,16.90
2019-04-21T06:24:29.977Z,17.23
2019-04-21T06:25:54.632Z,17.57
2019-04-21T06:26:51.816Z,17.57
2019-04-21T06:28:36.990Z,17.44
2019-04-21T06:29:30.124Z,17.36
2019-04-21T06:30:33.321Z,17.44
2019-04-21T06:31:59.269Z,17.14
2019-04-21T06:34:37.800Z,17.54
2019-04-21T06:35:45.777Z,17.22
2019-04-21T06:36:39.289Z,17.79
2019-04-21T06:38:49.404Z,17.94
2019-04-21T06:39:33.494Z,17.81
2019-04-21T06:40:35.790Z,17.44
2019-04-21T06:41:31.450Z,17.26
2019-04-21T06:42:25.519Z,17.55
2019-04-21T06:43:38.109Z,18.15
2019-04-21T06:44:33.081Z,18.10
2019-04-21T06:45:37.936Z,18.31
2019-04-21T06:46:59.626Z,18.91
2019-04-21T06:47:35.135Z,19.18
2019-04-21T06:48:33.018Z,19.13
2019-04-21T06:49:28.120Z,18.83
2019-04-21T06:50:37.807Z,18.37
2019-04-21T06:53:42.472Z,18.43
2019-04-21T06:54:35.220Z,18.57
2019-04-21T06:55:27.877Z,19.23
2019-04-21T06:56:37.964Z,19.11
2019-04-21T06:57:50.456Z,19.57
2019-04-21T06:58:25.229Z,19.32
2019-04-21T06:59:26.596Z,19.48
2019-04-21T07:00:25.887Z,19.40
2019-04-21T07:01:30.785Z,19.51
2019-04-21T07:02:42.268Z,18.61
2019-04-21T07:03:48.647Z,19.18
2019-04-21T07:04:39.599Z,19.29
2019-04-21T07:05:33.533Z,19.60
2019-04-21T07:06:32.176Z,19.84
2019-04-21T07:07:27.574Z,20.30
2019-04-21T07:09:48.285Z,20.09
2019-04-21T07:10:30.104Z,19.94
2019-04-21T07:11:25.565Z,20.03
2019-04-21T07:12:28.681Z,19.93
2019-04-21T07:13:28.743Z,19.36
2019-04-21T07:14:37.980Z,19.60
2019-04-21T07:15:33.168Z,19.60
2019-04-21T07:16:32.010Z,19.83
2019-04-21T07:17:30.537Z,19.73
2019-04-21T07:18:34.546Z,19.40
2019-04-21T07:20:28.253Z,19.40
2019-04-21T07:21:31.079Z,19.70
2019-04-21T07:22:30.524Z,19.97
2019-04-21T07:23:31.940Z,20.23
2019-04-21T07:24:31.894Z,20.39
2019-04-21T07:25:34.339Z,20.10
2019-04-21T07:26:32.908Z,20.53
2019-04-21T07:27:33.934Z,20.39
2019-04-21T07:28:33.613Z,20.16
2019-04-21T07:29:36.981Z,20.24
2019-04-21T07:30:31.461Z,20.76
2019-04-21T07:31:31.513Z,20.61
2019-04-21T07:32:31.924Z,21.05
2019-04-21T07:33:52.388Z,21.92
2019-04-21T07:34:33.720Z,21.11
2019-04-21T07:35:24.934Z,20.72
2019-04-21T07:36:38.477Z,21.08
2019-04-21T07:37:30.535Z,20.54
2019-04-21T07:38:27.437Z,20.12
2019-04-21T07:39:30.068Z,20.54
2019-04-21T07:40:25.893Z,21.05
2019-04-21T07:41:20.095Z,21.44
2019-04-21T07:42:23.783Z,21.99
2019-04-21T07:43:20.457Z,22.56
2019-04-21T07:44:24.291Z,22.97
2019-04-21T07:45:23.013Z,22.89
2019-04-21T07:46:19.850Z,21.63
2019-04-21T07:47:28.461Z,21.48
2019-04-21T07:48:29.742Z,21.91
2019-04-21T07:49:26.529Z,22.07
2019-04-21T07:50:29.920Z,21.72
2019-04-21T07:51:32.805Z,21.97
2019-04-21T07:52:28.376Z,21.83
2019-04-21T07:53:34.498Z,22.04
2019-04-21T07:54:49.651Z,21.94
2019-04-21T07:56:11.936Z,22.23
2019-04-21T07:57:30.394Z,21.83
2019-04-21T07:58:26.343Z,22.23
2019-04-21T07:59:43.083Z,22.27
2019-04-21T08:00:42.600Z,21.85
2019-04-21T08:02:22.180Z,21.82
2019-04-21T08:03:28.245Z,21.91
2019-04-21T08:04:43.939Z,21.61
2019-04-21T08:05:24.839Z,21.56
2019-04-21T08:06:33.669Z,21.59
2019-04-21T08:07:30.629Z,22.09
2019-04-21T08:08:31.460Z,22.17
2019-04-21T08:09:28.127Z,22.53
2019-04-21T08:10:22.955Z,22.52
2019-04-21T08:11:21.080Z,23.39
2019-04-21T08:12:22.592Z,23.40
2019-04-21T08:13:34.579Z,22.84
2019-04-21T08:14:28.578Z,22.75
2019-04-21T08:15:27.658Z,23.12
2019-04-21T08:17:28.488Z,22.60
2019-04-21T08:18:26.701Z,22.89
2019-04-21T08:19:25.243Z,23.92
2019-04-21T08:20:24.764Z,24.77
2019-04-21T08:21:32.954Z,24.50
2019-04-21T08:22:25.880Z,24.02
2019-04-21T08:23:29.314Z,23.55
2019-04-21T08:24:33.003Z,23.76
2019-04-21T08:25:29.848Z,24.12
2019-04-21T08:26:34.238Z,24.32
2019-04-21T08:27:25.792Z,25.09
2019-04-21T08:28:25.916Z,24.82
2019-04-21T08:30:45.824Z,23.94
2019-04-21T08:31:32.272Z,24.67
2019-04-21T08:32:42.331Z,24.95
2019-04-21T08:33:32.303Z,24.82
2019-04-21T08:34:29.922Z,24.94
2019-04-21T08:37:29.589Z,23.55
2019-04-21T08:38:31.503Z,25.00
2019-04-21T08:39:31.265Z,25.16
2019-04-21T08:40:31.727Z,25.44
2019-04-21T08:41:27.918Z,25.16
2019-04-21T08:42:28.401Z,25.59
2019-04-21T08:43:37.264Z,24.45
2019-04-21T08:44:35.175Z,24.31
2019-04-21T08:45:29.436Z,24.61
2019-04-21T08:46:28.956Z,25.68
2019-04-21T08:47:25.532Z,26.25
2019-04-21T08:48:22.794Z,25.62
2019-04-21T08:49:26.754Z,25.17
2019-04-21T08:50:25.475Z,24.73
2019-04-21T08:51:55.828Z,24.67
2019-04-21T08:52:40.601Z,24.64
2019-04-21T08:53:31.961Z,25.34
2019-04-21T08:54:26.538Z,24.97
2019-04-21T08:55:30.598Z,25.00
2019-04-21T08:56:41.625Z,25.77
2019-04-21T08:57:33.211Z,26.21
2019-04-21T08:58:30.690Z,26.24
2019-04-21T08:59:47.160Z,26.40
2019-04-21T09:00:26.288Z,25.83
2019-04-21T09:01:34.655Z,25.10
2019-04-21T09:02:29.719Z,24.92
2019-04-21T09:03:33.026Z,25.01
2019-04-21T09:04:24.472Z,24.75
2019-04-21T09:05:23.402Z,24.42
2019-04-21T09:06:34.292Z,25.35
2019-04-21T09:08:27.690Z,26.09
2019-04-21T09:09:22.389Z,25.94
2019-04-21T09:10:25.088Z,25.28
2019-04-21T09:11:22.539Z,24.57
2019-04-21T09:12:21.191Z,25.38
2019-04-21T09:13:25.113Z,26.35
2019-04-21T09:14:24.163Z,26.62
2019-04-21T09:15:24.986Z,27.46
2019-04-21T09:16:21.910Z,28.06
2019-04-21T09:17:20.644Z,28.07
2019-04-21T09:18:18.507Z,26.92
2019-04-21T09:19:35.268Z,26.28
2019-04-21T09:20:25.141Z,25.93
2019-04-21T09:21:26.922Z,25.62
2019-04-21T09:22:25.565Z,25.00
2019-04-21T09:23:28.778Z,24.52
2019-04-21T09:24:26.467Z,25.07
2019-04-21T09:25:26.914Z,24.47
2019-04-21T09:26:26.300Z,25.24
2019-04-21T09:27:20.702Z,25.64
2019-04-21T09:28:21.414Z,25.75
2019-04-21T09:29:16.079Z,26.06
2019-04-21T09:30:06.891Z,26.47
2019-04-21T09:31:06.401Z,27.38
2019-04-21T09:32:09.667Z,27.06
2019-04-21T09:33:05.714Z,26.92
2019-04-21T09:34:06.616Z,26.25
2019-04-21T09:35:09.862Z,25.93
2019-04-21T09:36:09.683Z,26.22
2019-04-21T09:37:19.171Z,26.31
2019-04-21T09:38:16.233Z,26.84
2019-04-21T09:39:11.284Z,26.80
2019-04-21T09:40:06.656Z,26.50
2019-04-21T09:41:06.780Z,26.11
2019-04-21T09:42:06.583Z,26.04
2019-04-21T09:43:08.544Z,25.79
2019-04-21T09:44:07.817Z,26.04
2019-04-21T09:45:07.909Z,25.98
2019-04-21T09:46:04.159Z,26.96
2019-04-21T09:47:06.777Z,26.89
2019-04-21T09:48:09.929Z,26.35
2019-04-21T09:49:09.503Z,26.46
2019-04-21T09:50:06.566Z,26.24
2019-04-21T09:51:04.112Z,25.91
2019-04-21T09:52:07.770Z,26.42
2019-04-21T09:53:14.610Z,27.16
2019-04-21T09:54:10.408Z,26.61
2019-04-21T09:55:12.491Z,26.52
2019-04-21T09:56:10.495Z,25.91
2019-04-21T09:57:09.453Z,26.04
2019-04-21T09:58:15.141Z,26.72
2019-04-21T09:59:15.170Z,28.09
2019-04-21T10:00:12.507Z,27.48
2019-04-21T10:01:15.871Z,26.46
2019-04-21T10:02:13.615Z,25.31
2019-04-21T10:03:09.906Z,25.72
2019-04-21T10:04:05.841Z,25.30
2019-04-21T10:05:05.265Z,25.56
2019-04-21T10:06:04.441Z,26.40
2019-04-21T10:07:04.596Z,26.28
2019-04-21T10:08:03.936Z,26.22
2019-04-21T10:09:05.967Z,25.42
2019-04-21T10:10:03.920Z,25.59
2019-04-21T10:11:05.059Z,25.19
2019-04-21T10:12:05.194Z,25.39
2019-04-21T10:13:04.951Z,26.05
2019-04-21T10:14:05.007Z,26.40
2019-04-21T10:15:04.276Z,26.64
2019-04-21T10:16:05.097Z,26.95
2019-04-21T10:17:04.751Z,27.54
2019-04-21T10:18:03.826Z,26.36
2019-04-21T10:19:04.616Z,25.59
2019-04-21T10:20:05.084Z,26.27
2019-04-21T10:21:03.827Z,26.06
2019-04-21T10:22:05.791Z,26.84
2019-04-21T10:23:04.950Z,28.04
2019-04-21T10:24:04.173Z,28.09
2019-04-21T10:25:04.714Z,27.70
2019-04-21T10:26:04.288Z,28.19
2019-04-21T10:27:06.546Z,27.91
2019-04-21T10:28:03.736Z,27.41
2019-04-21T10:29:09.387Z,28.14
2019-04-21T10:30:05.714Z,28.68
2019-04-21T10:31:04.825Z,29.29
2019-04-21T10:32:03.683Z,28.82
2019-04-21T10:33:04.040Z,29.23
2019-04-21T10:34:03.675Z,28.96
2019-04-21T10:35:03.715Z,29.22
2019-04-21T10:36:04.656Z,29.23
2019-04-21T10:37:04.881Z,27.77
2019-04-21T10:38:17.990Z,26.99
2019-04-21T10:39:05.927Z,26.72
2019-04-21T10:40:03.644Z,26.64
2019-04-21T10:41:03.597Z,26.37
2019-04-21T10:42:03.628Z,26.61
2019-04-21T10:43:03.907Z,26.36
2019-04-21T10:44:04.975Z,26.39
2019-04-21T10:45:03.623Z,26.44
2019-04-21T10:46:04.489Z,26.86
2019-04-21T10:47:04.686Z,27.24
2019-04-21T10:48:05.052Z,28.60
2019-04-21T10:49:04.410Z,28.90
2019-04-21T10:50:04.527Z,28.04
2019-04-21T10:51:03.505Z,27.29
2019-04-21T10:52:04.632Z,26.52
2019-04-21T10:53:04.842Z,26.54
2019-04-21T10:54:04.059Z,26.31
2019-04-21T10:55:21.846Z,26.29
2019-04-21T10:56:14.524Z,26.58
2019-04-21T10:57:04.464Z,26.17
2019-04-21T10:58:04.494Z,25.86
2019-04-21T10:59:04.504Z,26.28
2019-04-21T11:00:04.458Z,26.50
2019-04-21T11:01:04.163Z,27.47
2019-04-21T11:02:03.411Z,27.58
2019-04-21T11:03:04.705Z,28.17
2019-04-21T11:04:07.484Z,27.31
2019-04-21T11:05:04.788Z,26.49
2019-04-21T11:06:03.425Z,26.92
2019-04-21T11:07:08.465Z,27.36
2019-04-21T11:08:14.849Z,27.71
2019-04-21T11:09:05.522Z,27.64
2019-04-21T11:10:04.479Z,27.17
2019-04-21T11:11:03.738Z,26.64
2019-04-21T11:12:04.099Z,26.35
2019-04-21T11:13:03.305Z,27.23
2019-04-21T11:14:04.351Z,27.48
2019-04-21T11:15:03.329Z,27.24
2019-04-21T11:16:03.500Z,26.94
2019-04-21T11:17:04.028Z,26.39
2019-04-21T11:18:03.971Z,26.95
2019-04-21T11:19:04.055Z,27.23
2019-04-21T11:20:04.535Z,27.80
2019-04-21T11:21:03.268Z,28.48
2019-04-21T11:22:03.224Z,28.11
2019-04-21T11:23:03.212Z,28.03
2019-04-21T11:24:03.927Z,28.14
2019-04-21T11:25:03.188Z,27.80
2019-04-21T11:26:04.387Z,26.64
2019-04-21T11:27:04.527Z,26.99
2019-04-21T11:28:03.159Z,26.68
2019-04-21T11:29:03.259Z,26.95
2019-04-21T11:30:03.152Z,27.05
2019-04-21T11:31:04.732Z,27.47
2019-04-21T11:32:03.135Z,28.28
2019-04-21T11:33:03.545Z,28.14
2019-04-21T11:34:03.120Z,28.21
2019-04-21T11:35:03.375Z,28.48
2019-04-21T11:36:03.575Z,28.23
2019-04-21T11:37:03.924Z,28.04
2019-04-21T11:38:08.399Z,27.85
2019-04-21T11:39:19.349Z,28.28
2019-04-21T11:40:10.528Z,27.70
2019-04-21T11:41:04.047Z,28.09
2019-04-21T11:42:03.716Z,27.85
2019-04-21T11:43:03.923Z,27.67
2019-04-21T11:45:06.293Z,27.20
2019-04-21T11:46:06.428Z,27.86
2019-04-21T11:47:06.374Z,28.84
2019-04-21T11:48:06.139Z,28.70
2019-04-21T11:49:06.309Z,28.70
2019-04-21T11:50:05.385Z,29.00
2019-04-21T11:51:05.142Z,27.99
2019-04-21T11:52:05.137Z,27.29
2019-04-21T11:53:05.384Z,26.37
2019-04-21T11:54:05.093Z,26.44
2019-04-21T11:55:05.081Z,27.09
2019-04-21T11:56:05.075Z,27.54
2019-04-21T11:57:12.396Z,27.74
2019-04-21T11:58:06.048Z,27.47
2019-04-21T11:59:05.865Z,28.11
2019-04-21T12:00:06.066Z,28.35
2019-04-21T12:01:05.597Z,27.50
2019-04-21T12:02:05.670Z,27.14
2019-04-21T12:03:05.797Z,27.32
2019-04-21T12:04:05.527Z,27.51
2019-04-21T12:05:05.500Z,26.96
2019-04-21T12:06:05.792Z,26.84
2019-04-21T12:07:05.119Z,27.06
2019-04-21T12:08:17.124Z,27.99
2019-04-21T12:09:06.980Z,28.36
2019-04-21T12:10:05.768Z,28.04
2019-04-21T12:11:05.280Z,28.41
2019-04-21T12:12:05.338Z,27.91
2019-04-21T12:13:07.400Z,27.48
2019-04-21T12:14:05.908Z,27.19
2019-04-21T12:15:05.997Z,27.06
2019-04-21T12:16:05.223Z,27.47
2019-04-21T12:17:05.827Z,27.26
2019-04-21T12:18:06.018Z,27.70
2019-04-21T12:19:05.189Z,26.22
2019-04-21T12:20:04.847Z,26.99
2019-04-21T12:21:05.305Z,27.10
2019-04-21T12:22:11.937Z,27.01
2019-04-21T12:23:06.742Z,27.16
2019-04-21T12:24:04.823Z,28.07
2019-04-21T12:25:05.116Z,28.50
2019-04-21T12:26:05.144Z,28.68
2019-04-21T12:27:05.752Z,28.85
2019-04-21T12:28:05.818Z,27.39
2019-04-21T12:29:06.011Z,27.70
2019-04-21T12:30:05.992Z,28.26
2019-04-21T12:31:05.403Z,28.07
2019-04-21T12:32:05.639Z,28.69
2019-04-21T12:33:04.784Z,27.67
2019-04-21T12:34:05.769Z,26.55
2019-04-21T12:35:06.125Z,26.32
2019-04-21T12:36:06.054Z,26.52
2019-04-21T12:37:04.707Z,26.65
2019-04-21T12:38:04.786Z,26.57
2019-04-21T12:39:06.933Z,26.91
2019-04-21T12:40:04.668Z,27.42
2019-04-21T12:41:04.753Z,27.54
2019-04-21T12:42:04.881Z,27.54
2019-04-21T12:43:04.667Z,26.99
2019-04-21T12:44:04.730Z,27.23
2019-04-21T12:45:05.615Z,28.04
2019-04-21T12:46:04.622Z,28.59
2019-04-21T12:47:05.765Z,29.37
2019-04-21T12:48:06.054Z,29.19
2019-04-21T12:49:04.587Z,27.79
2019-04-21T12:50:04.664Z,28.84
2019-04-21T12:51:05.984Z,28.54
2019-04-21T12:52:05.884Z,28.91
2019-04-21T12:53:05.366Z,29.56
2019-04-21T12:54:05.857Z,29.00
2019-04-21T12:55:05.723Z,28.07
2019-04-21T12:56:05.433Z,27.09
2019-04-21T12:57:05.421Z,26.54
2019-04-21T12:58:05.531Z,27.28
2019-04-21T12:59:05.041Z,26.74
2019-04-21T13:00:04.838Z,26.54
2019-04-21T13:01:05.031Z,26.67
2019-04-21T13:02:04.482Z,27.96
2019-04-21T13:03:05.719Z,27.71
2019-04-21T13:04:05.814Z,27.70
2019-04-21T13:05:04.495Z,27.95
2019-04-21T13:06:05.503Z,28.16
2019-04-21T13:07:05.575Z,27.99
2019-04-21T13:08:04.511Z,28.29
2019-04-21T13:09:07.444Z,27.95
2019-04-21T13:10:06.416Z,28.50
2019-04-21T13:11:04.453Z,27.77
2019-04-21T13:12:04.890Z,26.67
2019-04-21T13:13:04.375Z,27.57
2019-04-21T13:14:04.393Z,28.41
2019-04-21T13:15:04.399Z,28.35
2019-04-21T13:16:05.350Z,29.28
2019-04-21T13:17:05.638Z,28.80
2019-04-21T13:18:04.646Z,28.51
2019-04-21T13:19:05.081Z,28.63
2019-04-21T13:20:05.322Z,28.75
2019-04-21T13:21:05.929Z,29.52
2019-04-21T13:22:04.318Z,28.11
2019-04-21T13:23:04.302Z,27.39
2019-04-21T13:24:05.206Z,28.28
2019-04-21T13:25:05.434Z,28.80
2019-04-21T13:26:04.988Z,28.33
2019-04-21T13:27:05.690Z,27.99
2019-04-21T13:28:04.993Z,27.69
2019-04-21T13:29:04.273Z,27.70
2019-04-21T13:30:04.352Z,28.23
2019-04-21T13:31:04.428Z,28.80
2019-04-21T13:32:05.493Z,29.55
2019-04-21T13:33:05.116Z,29.33
2019-04-21T13:34:04.208Z,29.71
2019-04-21T13:35:05.371Z,30.03
2019-04-21T13:36:05.008Z,30.59
2019-04-21T13:37:05.634Z,29.47
2019-04-21T13:38:04.634Z,28.36
2019-04-21T13:39:32.492Z,28.54
2019-04-21T13:40:27.533Z,28.04
2019-04-21T13:41:21.486Z,27.61
2019-04-21T13:42:14.424Z,27.28
2019-04-21T13:43:08.137Z,27.46
2019-04-21T13:44:05.222Z,27.79
2019-04-21T13:45:04.866Z,28.10
2019-04-21T13:46:04.134Z,28.44
2019-04-21T13:47:04.894Z,28.44
2019-04-21T13:48:04.520Z,28.07
2019-04-21T13:49:05.238Z,27.80
2019-04-21T13:50:05.287Z,27.71
2019-04-21T13:51:04.999Z,27.70
2019-04-21T13:52:04.828Z,27.64
2019-04-21T13:53:04.946Z,27.84
2019-04-21T13:54:04.074Z,28.59
2019-04-21T13:55:05.464Z,29.06
2019-04-21T13:56:04.733Z,29.20
2019-04-21T13:57:04.898Z,28.59
2019-04-21T13:58:04.343Z,28.48
2019-04-21T13:59:04.238Z,27.64
2019-04-21T14:00:05.507Z,27.74
2019-04-21T14:01:03.931Z,27.62
2019-04-21T14:02:04.745Z,27.53
2019-04-21T14:03:04.755Z,27.17
2019-04-21T14:04:05.180Z,26.77
2019-04-21T14:05:07.765Z,27.24
2019-04-21T14:06:04.884Z,28.38
2019-04-21T14:07:03.898Z,28.73
2019-04-21T14:08:05.061Z,29.45
2019-04-21T14:09:05.193Z,29.26
2019-04-21T14:10:07.125Z,29.35
2019-04-21T14:11:05.144Z,28.85